sensor_id;sensor_type;location;lat;lon;timestamp;P1;durP1;ratioP1;P2;durP2;ratioP2
59442;SDS011;45247;47.466;19.004;2022-10-18T00:01:41;13.15;;;8.85;;
59442;SDS011;45247;47.466;19.004;2022-10-18T00:04:09;15.73;;;10.40;;
59442;SDS011;45247;47.466;19.004;2022-10-18T00:06:37;17.95;;;9.80;;
59442;SDS011;45247;47.466;19.004;2022-10-18T00:09:08;16.23;;;11.10;;
59442;SDS011;45247;47.466;19.004;2022-10-18T00:11:38;12.70;;;9.63;;
59442;SDS011;45247;47.466;19.004;2022-10-18T00:14:06;20.15;;;11.57;;
59442;SDS011;45247;47.466;19.004;2022-10-18T00:16:34;18.17;;;10.35;;
59442;SDS011;45247;47.466;19.004;2022-10-18T00:19:02;19.40;;;11.77;;
59442;SDS011;45247;47.466;19.004;2022-10-18T00:21:31;16.55;;;11.13;;
59442;SDS011;45247;47.466;19.004;2022-10-18T00:23:59;15.45;;;10.43;;
59442;SDS011;45247;47.466;19.004;2022-10-18T00:26:28;17.02;;;10.57;;
59442;SDS011;45247;47.466;19.004;2022-10-18T00:28:59;15.35;;;10.38;;
59442;SDS011;45247;47.466;19.004;2022-10-18T00:31:29;15.00;;;9.75;;
59442;SDS011;45247;47.466;19.004;2022-10-18T00:33:58;15.73;;;9.88;;
59442;SDS011;45247;47.466;19.004;2022-10-18T00:36:29;16.98;;;10.90;;
59442;SDS011;45247;47.466;19.004;2022-10-18T00:38:59;14.05;;;9.80;;
59442;SDS011;45247;47.466;19.004;2022-10-18T00:41:28;15.80;;;10.23;;
59442;SDS011;45247;47.466;19.004;2022-10-18T00:44:00;19.05;;;10.95;;
59442;SDS011;45247;47.466;19.004;2022-10-18T00:46:30;17.27;;;10.05;;
59442;SDS011;45247;47.466;19.004;2022-10-18T00:49:00;14.60;;;10.20;;
59442;SDS011;45247;47.466;19.004;2022-10-18T00:51:31;18.23;;;10.90;;
59442;SDS011;45247;47.466;19.004;2022-10-18T00:54:13;17.90;;;10.80;;
59442;SDS011;45247;47.466;19.004;2022-10-18T00:56:43;14.75;;;10.45;;
59442;SDS011;45247;47.466;19.004;2022-10-18T00:59:13;17.08;;;11.05;;
59442;SDS011;45247;47.466;19.004;2022-10-18T01:01:42;17.17;;;10.48;;
59442;SDS011;45247;47.466;19.004;2022-10-18T01:04:12;19.58;;;11.55;;
59442;SDS011;45247;47.466;19.004;2022-10-18T01:06:44;16.83;;;10.32;;
59442;SDS011;45247;47.466;19.004;2022-10-18T01:09:19;16.08;;;10.80;;
59442;SDS011;45247;47.466;19.004;2022-10-18T01:11:59;19.00;;;10.95;;
59442;SDS011;45247;47.466;19.004;2022-10-18T01:14:44;14.43;;;10.50;;
59442;SDS011;45247;47.466;19.004;2022-10-18T01:17:17;20.65;;;11.13;;
59442;SDS011;45247;47.466;19.004;2022-10-18T01:20:01;18.10;;;12.18;;
59442;SDS011;45247;47.466;19.004;2022-10-18T01:22:43;21.10;;;13.23;;
59442;SDS011;45247;47.466;19.004;2022-10-18T01:25:24;35.47;;;13.40;;
59442;SDS011;45247;47.466;19.004;2022-10-18T01:28:06;20.83;;;12.65;;
59442;SDS011;45247;47.466;19.004;2022-10-18T01:30:52;22.15;;;13.38;;
59442;SDS011;45247;47.466;19.004;2022-10-18T01:33:26;19.75;;;11.60;;
59442;SDS011;45247;47.466;19.004;2022-10-18T01:36:01;19.23;;;12.95;;
59442;SDS011;45247;47.466;19.004;2022-10-18T01:38:34;21.67;;;13.65;;
59442;SDS011;45247;47.466;19.004;2022-10-18T01:41:04;25.27;;;15.13;;
59442;SDS011;45247;47.466;19.004;2022-10-18T01:43:40;22.33;;;14.05;;
59442;SDS011;45247;47.466;19.004;2022-10-18T01:46:11;18.50;;;12.90;;
59442;SDS011;45247;47.466;19.004;2022-10-18T01:48:43;18.55;;;12.77;;
59442;SDS011;45247;47.466;19.004;2022-10-18T01:51:12;21.98;;;14.57;;
59442;SDS011;45247;47.466;19.004;2022-10-18T01:53:40;25.45;;;14.77;;
59442;SDS011;45247;47.466;19.004;2022-10-18T01:56:15;25.77;;;15.32;;
59442;SDS011;45247;47.466;19.004;2022-10-18T01:58:54;20.85;;;12.75;;
59442;SDS011;45247;47.466;19.004;2022-10-18T02:01:32;20.35;;;13.40;;
59442;SDS011;45247;47.466;19.004;2022-10-18T02:04:10;21.38;;;14.00;;
59442;SDS011;45247;47.466;19.004;2022-10-18T02:06:46;17.55;;;13.07;;
59442;SDS011;45247;47.466;19.004;2022-10-18T02:09:24;17.63;;;12.18;;
59442;SDS011;45247;47.466;19.004;2022-10-18T02:12:00;22.10;;;13.18;;
59442;SDS011;45247;47.466;19.004;2022-10-18T02:14:30;17.80;;;11.93;;
59442;SDS011;45247;47.466;19.004;2022-10-18T02:17:01;19.25;;;13.38;;
59442;SDS011;45247;47.466;19.004;2022-10-18T02:19:35;21.17;;;14.05;;
59442;SDS011;45247;47.466;19.004;2022-10-18T02:24:42;19.05;;;11.88;;
59442;SDS011;45247;47.466;19.004;2022-10-18T02:27:12;23.88;;;14.38;;
59442;SDS011;45247;47.466;19.004;2022-10-18T02:29:41;21.88;;;14.35;;
59442;SDS011;45247;47.466;19.004;2022-10-18T02:32:13;24.52;;;13.73;;
59442;SDS011;45247;47.466;19.004;2022-10-18T02:34:47;18.13;;;12.95;;
59442;SDS011;45247;47.466;19.004;2022-10-18T02:37:23;21.55;;;12.30;;
59442;SDS011;45247;47.466;19.004;2022-10-18T02:39:56;20.60;;;11.63;;
59442;SDS011;45247;47.466;19.004;2022-10-18T02:42:24;17.98;;;12.00;;
59442;SDS011;45247;47.466;19.004;2022-10-18T02:44:52;18.05;;;11.77;;
59442;SDS011;45247;47.466;19.004;2022-10-18T02:47:21;17.80;;;12.05;;
59442;SDS011;45247;47.466;19.004;2022-10-18T02:49:49;21.25;;;11.48;;
59442;SDS011;45247;47.466;19.004;2022-10-18T02:52:17;18.13;;;11.77;;
59442;SDS011;45247;47.466;19.004;2022-10-18T02:54:45;16.95;;;11.48;;
59442;SDS011;45247;47.466;19.004;2022-10-18T02:57:13;19.55;;;12.80;;
59442;SDS011;45247;47.466;19.004;2022-10-18T02:59:41;19.42;;;12.73;;
59442;SDS011;45247;47.466;19.004;2022-10-18T03:02:09;18.65;;;12.35;;
59442;SDS011;45247;47.466;19.004;2022-10-18T03:04:39;19.63;;;12.82;;
59442;SDS011;45247;47.466;19.004;2022-10-18T03:07:07;27.35;;;14.02;;
59442;SDS011;45247;47.466;19.004;2022-10-18T03:09:35;23.25;;;14.35;;
59442;SDS011;45247;47.466;19.004;2022-10-18T03:12:03;22.10;;;13.88;;
59442;SDS011;45247;47.466;19.004;2022-10-18T03:14:31;25.55;;;14.57;;
59442;SDS011;45247;47.466;19.004;2022-10-18T03:16:59;22.55;;;14.82;;
59442;SDS011;45247;47.466;19.004;2022-10-18T03:19:27;23.80;;;15.35;;
59442;SDS011;45247;47.466;19.004;2022-10-18T03:21:56;24.77;;;15.68;;
59442;SDS011;45247;47.466;19.004;2022-10-18T03:24:25;22.02;;;14.75;;
59442;SDS011;45247;47.466;19.004;2022-10-18T03:26:53;23.17;;;14.82;;
59442;SDS011;45247;47.466;19.004;2022-10-18T03:29:20;25.75;;;15.10;;
59442;SDS011;45247;47.466;19.004;2022-10-18T03:31:48;24.73;;;16.35;;
59442;SDS011;45247;47.466;19.004;2022-10-18T03:34:17;22.17;;;14.77;;
59442;SDS011;45247;47.466;19.004;2022-10-18T03:36:45;23.17;;;13.88;;
59442;SDS011;45247;47.466;19.004;2022-10-18T03:39:14;22.95;;;13.95;;
59442;SDS011;45247;47.466;19.004;2022-10-18T03:41:42;23.83;;;16.50;;
59442;SDS011;45247;47.466;19.004;2022-10-18T03:44:10;22.73;;;15.90;;
59442;SDS011;45247;47.466;19.004;2022-10-18T03:46:38;23.92;;;14.43;;
59442;SDS011;45247;47.466;19.004;2022-10-18T03:49:07;21.23;;;14.27;;
59442;SDS011;45247;47.466;19.004;2022-10-18T03:51:35;21.02;;;14.75;;
59442;SDS011;45247;47.466;19.004;2022-10-18T03:54:03;21.27;;;13.23;;
59442;SDS011;45247;47.466;19.004;2022-10-18T03:56:32;24.33;;;15.95;;
59442;SDS011;45247;47.466;19.004;2022-10-18T03:59:00;22.33;;;15.45;;
59442;SDS011;45247;47.466;19.004;2022-10-18T04:01:29;28.17;;;14.63;;
59442;SDS011;45247;47.466;19.004;2022-10-18T04:03:58;23.20;;;14.23;;
59442;SDS011;45247;47.466;19.004;2022-10-18T04:06:26;26.83;;;15.25;;
59442;SDS011;45247;47.466;19.004;2022-10-18T04:08:54;26.48;;;14.38;;
59442;SDS011;45247;47.466;19.004;2022-10-18T04:11:22;20.88;;;13.65;;
59442;SDS011;45247;47.466;19.004;2022-10-18T04:13:51;24.35;;;15.07;;
59442;SDS011;45247;47.466;19.004;2022-10-18T04:16:19;21.35;;;13.32;;
59442;SDS011;45247;47.466;19.004;2022-10-18T04:18:47;21.23;;;13.25;;
59442;SDS011;45247;47.466;19.004;2022-10-18T04:21:15;18.48;;;12.38;;
59442;SDS011;45247;47.466;19.004;2022-10-18T04:23:45;24.63;;;13.10;;
59442;SDS011;45247;47.466;19.004;2022-10-18T04:26:13;18.95;;;12.27;;
59442;SDS011;45247;47.466;19.004;2022-10-18T04:28:42;23.83;;;13.45;;
59442;SDS011;45247;47.466;19.004;2022-10-18T04:31:12;17.05;;;11.85;;
59442;SDS011;45247;47.466;19.004;2022-10-18T04:33:40;20.55;;;13.20;;
59442;SDS011;45247;47.466;19.004;2022-10-18T04:36:08;17.00;;;11.73;;
59442;SDS011;45247;47.466;19.004;2022-10-18T04:38:36;21.23;;;14.02;;
59442;SDS011;45247;47.466;19.004;2022-10-18T04:41:04;21.17;;;13.75;;
59442;SDS011;45247;47.466;19.004;2022-10-18T04:43:32;20.55;;;12.88;;
59442;SDS011;45247;47.466;19.004;2022-10-18T04:46:01;22.98;;;13.82;;
59442;SDS011;45247;47.466;19.004;2022-10-18T04:48:30;19.05;;;12.45;;
59442;SDS011;45247;47.466;19.004;2022-10-18T04:50:58;22.08;;;13.70;;
59442;SDS011;45247;47.466;19.004;2022-10-18T04:53:26;25.60;;;16.25;;
59442;SDS011;45247;47.466;19.004;2022-10-18T04:55:54;23.02;;;15.40;;
59442;SDS011;45247;47.466;19.004;2022-10-18T04:58:22;29.08;;;17.48;;
59442;SDS011;45247;47.466;19.004;2022-10-18T05:00:51;32.13;;;18.90;;
59442;SDS011;45247;47.466;19.004;2022-10-18T05:03:19;31.35;;;18.92;;
59442;SDS011;45247;47.466;19.004;2022-10-18T05:05:48;34.10;;;17.15;;
59442;SDS011;45247;47.466;19.004;2022-10-18T05:08:29;38.58;;;19.67;;
59442;SDS011;45247;47.466;19.004;2022-10-18T05:10:58;30.80;;;17.83;;
59442;SDS011;45247;47.466;19.004;2022-10-18T05:13:27;27.20;;;16.90;;
59442;SDS011;45247;47.466;19.004;2022-10-18T05:15:56;29.23;;;17.13;;
59442;SDS011;45247;47.466;19.004;2022-10-18T05:18:24;23.23;;;16.10;;
59442;SDS011;45247;47.466;19.004;2022-10-18T05:20:54;28.80;;;17.52;;
59442;SDS011;45247;47.466;19.004;2022-10-18T05:23:23;36.33;;;18.90;;
59442;SDS011;45247;47.466;19.004;2022-10-18T05:25:51;31.27;;;16.95;;
59442;SDS011;45247;47.466;19.004;2022-10-18T05:28:19;27.88;;;17.20;;
59442;SDS011;45247;47.466;19.004;2022-10-18T05:31:08;28.02;;;16.40;;
59442;SDS011;45247;47.466;19.004;2022-10-18T05:33:37;35.47;;;21.27;;
59442;SDS011;45247;47.466;19.004;2022-10-18T05:36:07;28.45;;;18.13;;
59442;SDS011;45247;47.466;19.004;2022-10-18T05:38:37;34.67;;;16.98;;
59442;SDS011;45247;47.466;19.004;2022-10-18T05:41:07;33.22;;;17.65;;
59442;SDS011;45247;47.466;19.004;2022-10-18T05:43:35;28.13;;;17.23;;
59442;SDS011;45247;47.466;19.004;2022-10-18T05:46:04;26.75;;;15.90;;
59442;SDS011;45247;47.466;19.004;2022-10-18T05:48:40;30.67;;;17.63;;
59442;SDS011;45247;47.466;19.004;2022-10-18T05:51:09;34.17;;;19.38;;
59442;SDS011;45247;47.466;19.004;2022-10-18T05:53:37;36.25;;;20.80;;
59442;SDS011;45247;47.466;19.004;2022-10-18T05:56:06;36.75;;;19.27;;
59442;SDS011;45247;47.466;19.004;2022-10-18T05:58:37;31.25;;;18.55;;
59442;SDS011;45247;47.466;19.004;2022-10-18T06:01:05;28.70;;;17.95;;
59442;SDS011;45247;47.466;19.004;2022-10-18T06:03:34;32.45;;;17.88;;
59442;SDS011;45247;47.466;19.004;2022-10-18T06:06:03;28.55;;;18.08;;
59442;SDS011;45247;47.466;19.004;2022-10-18T06:08:34;30.95;;;18.15;;
59442;SDS011;45247;47.466;19.004;2022-10-18T06:11:04;25.92;;;16.85;;
59442;SDS011;45247;47.466;19.004;2022-10-18T06:13:33;22.73;;;15.50;;
59442;SDS011;45247;47.466;19.004;2022-10-18T06:16:01;27.05;;;16.73;;
59442;SDS011;45247;47.466;19.004;2022-10-18T06:18:29;26.27;;;16.90;;
59442;SDS011;45247;47.466;19.004;2022-10-18T06:20:58;27.02;;;16.65;;
59442;SDS011;45247;47.466;19.004;2022-10-18T06:23:26;27.33;;;15.85;;
59442;SDS011;45247;47.466;19.004;2022-10-18T06:25:58;27.88;;;16.15;;
59442;SDS011;45247;47.466;19.004;2022-10-18T06:28:27;23.10;;;16.02;;
59442;SDS011;45247;47.466;19.004;2022-10-18T06:30:56;22.52;;;15.65;;
59442;SDS011;45247;47.466;19.004;2022-10-18T06:33:24;29.25;;;17.23;;
59442;SDS011;45247;47.466;19.004;2022-10-18T06:35:53;26.73;;;17.25;;
59442;SDS011;45247;47.466;19.004;2022-10-18T06:38:22;28.10;;;16.38;;
59442;SDS011;45247;47.466;19.004;2022-10-18T06:40:50;31.23;;;16.30;;
59442;SDS011;45247;47.466;19.004;2022-10-18T06:43:20;30.88;;;16.58;;
59442;SDS011;45247;47.466;19.004;2022-10-18T06:45:48;27.85;;;18.20;;
59442;SDS011;45247;47.466;19.004;2022-10-18T06:48:17;31.23;;;17.83;;
59442;SDS011;45247;47.466;19.004;2022-10-18T06:50:51;24.42;;;16.13;;
59442;SDS011;45247;47.466;19.004;2022-10-18T06:53:20;33.88;;;16.60;;
59442;SDS011;45247;47.466;19.004;2022-10-18T06:55:48;32.08;;;16.95;;
59442;SDS011;45247;47.466;19.004;2022-10-18T06:58:16;27.58;;;16.83;;
59442;SDS011;45247;47.466;19.004;2022-10-18T07:00:46;31.17;;;18.08;;
59442;SDS011;45247;47.466;19.004;2022-10-18T07:03:14;26.35;;;17.25;;
59442;SDS011;45247;47.466;19.004;2022-10-18T07:05:42;26.27;;;16.50;;
59442;SDS011;45247;47.466;19.004;2022-10-18T07:08:10;25.08;;;16.25;;
59442;SDS011;45247;47.466;19.004;2022-10-18T07:10:38;25.48;;;15.68;;
59442;SDS011;45247;47.466;19.004;2022-10-18T07:13:06;26.30;;;16.23;;
59442;SDS011;45247;47.466;19.004;2022-10-18T07:16:02;28.98;;;16.42;;
59442;SDS011;45247;47.466;19.004;2022-10-18T07:18:32;31.58;;;17.88;;
59442;SDS011;45247;47.466;19.004;2022-10-18T07:21:01;26.13;;;16.73;;
59442;SDS011;45247;47.466;19.004;2022-10-18T07:23:32;32.22;;;16.75;;
59442;SDS011;45247;47.466;19.004;2022-10-18T07:26:01;27.50;;;15.93;;
59442;SDS011;45247;47.466;19.004;2022-10-18T07:28:31;30.52;;;16.92;;
59442;SDS011;45247;47.466;19.004;2022-10-18T07:31:04;32.22;;;16.42;;
59442;SDS011;45247;47.466;19.004;2022-10-18T07:36:00;32.55;;;17.05;;
59442;SDS011;45247;47.466;19.004;2022-10-18T07:38:28;30.38;;;17.65;;
59442;SDS011;45247;47.466;19.004;2022-10-18T07:40:56;25.40;;;15.82;;
59442;SDS011;45247;47.466;19.004;2022-10-18T07:43:25;30.08;;;17.00;;
59442;SDS011;45247;47.466;19.004;2022-10-18T07:45:54;25.20;;;16.98;;
59442;SDS011;45247;47.466;19.004;2022-10-18T07:48:25;36.60;;;17.73;;
59442;SDS011;45247;47.466;19.004;2022-10-18T07:50:56;32.40;;;18.45;;
59442;SDS011;45247;47.466;19.004;2022-10-18T07:53:25;32.28;;;16.83;;
59442;SDS011;45247;47.466;19.004;2022-10-18T07:55:55;27.95;;;17.30;;
59442;SDS011;45247;47.466;19.004;2022-10-18T07:58:26;28.27;;;17.58;;
59442;SDS011;45247;47.466;19.004;2022-10-18T08:00:54;28.10;;;16.25;;
59442;SDS011;45247;47.466;19.004;2022-10-18T08:03:22;25.88;;;14.38;;
59442;SDS011;45247;47.466;19.004;2022-10-18T08:05:52;25.85;;;14.70;;
59442;SDS011;45247;47.466;19.004;2022-10-18T08:08:21;34.83;;;15.63;;
59442;SDS011;45247;47.466;19.004;2022-10-18T08:10:50;32.72;;;14.90;;
59442;SDS011;45247;47.466;19.004;2022-10-18T08:13:18;37.53;;;16.02;;
59442;SDS011;45247;47.466;19.004;2022-10-18T08:15:46;29.17;;;15.95;;
59442;SDS011;45247;47.466;19.004;2022-10-18T08:18:14;27.77;;;14.82;;
59442;SDS011;45247;47.466;19.004;2022-10-18T08:20:42;22.80;;;15.77;;
59442;SDS011;45247;47.466;19.004;2022-10-18T08:23:13;38.08;;;17.25;;
59442;SDS011;45247;47.466;19.004;2022-10-18T08:25:41;30.30;;;17.25;;
59442;SDS011;45247;47.466;19.004;2022-10-18T08:28:09;27.08;;;15.88;;
59442;SDS011;45247;47.466;19.004;2022-10-18T08:30:39;27.05;;;16.58;;
59442;SDS011;45247;47.466;19.004;2022-10-18T08:33:07;31.88;;;18.20;;
59442;SDS011;45247;47.466;19.004;2022-10-18T08:35:35;33.25;;;17.65;;
59442;SDS011;45247;47.466;19.004;2022-10-18T08:38:03;33.55;;;17.13;;
59442;SDS011;45247;47.466;19.004;2022-10-18T08:40:33;32.95;;;18.02;;
59442;SDS011;45247;47.466;19.004;2022-10-18T08:43:02;29.13;;;18.80;;
59442;SDS011;45247;47.466;19.004;2022-10-18T08:45:36;29.83;;;17.02;;
59442;SDS011;45247;47.466;19.004;2022-10-18T08:48:19;34.88;;;15.93;;
59442;SDS011;45247;47.466;19.004;2022-10-18T08:50:52;19.50;;;13.13;;
59442;SDS011;45247;47.466;19.004;2022-10-18T08:53:23;24.48;;;14.00;;
59442;SDS011;45247;47.466;19.004;2022-10-18T08:58:29;21.08;;;13.05;;
59442;SDS011;45247;47.466;19.004;2022-10-18T09:01:02;18.60;;;11.13;;
59442;SDS011;45247;47.466;19.004;2022-10-18T09:03:47;19.83;;;11.40;;
59442;SDS011;45247;47.466;19.004;2022-10-18T09:06:28;19.90;;;11.57;;
59442;SDS011;45247;47.466;19.004;2022-10-18T09:09:04;18.70;;;10.15;;
59442;SDS011;45247;47.466;19.004;2022-10-18T09:11:52;17.10;;;9.15;;
59442;SDS011;45247;47.466;19.004;2022-10-18T09:14:33;21.00;;;10.68;;
59442;SDS011;45247;47.466;19.004;2022-10-18T09:17:11;17.15;;;9.38;;
59442;SDS011;45247;47.466;19.004;2022-10-18T09:19:49;19.80;;;9.07;;
59442;SDS011;45247;47.466;19.004;2022-10-18T09:22:30;19.38;;;10.30;;
59442;SDS011;45247;47.466;19.004;2022-10-18T09:25:11;16.50;;;9.50;;
59442;SDS011;45247;47.466;19.004;2022-10-18T09:27:49;21.67;;;10.35;;
59442;SDS011;45247;47.466;19.004;2022-10-18T09:30:22;18.60;;;9.95;;
59442;SDS011;45247;47.466;19.004;2022-10-18T09:33:01;18.08;;;8.90;;
59442;SDS011;45247;47.466;19.004;2022-10-18T09:35:41;21.05;;;8.77;;
59442;SDS011;45247;47.466;19.004;2022-10-18T09:38:16;16.27;;;9.45;;
59442;SDS011;45247;47.466;19.004;2022-10-18T09:40:50;15.48;;;8.57;;
59442;SDS011;45247;47.466;19.004;2022-10-18T09:43:24;15.45;;;9.23;;
59442;SDS011;45247;47.466;19.004;2022-10-18T09:45:58;18.50;;;8.73;;
59442;SDS011;45247;47.466;19.004;2022-10-18T09:48:29;15.57;;;7.68;;
59442;SDS011;45247;47.466;19.004;2022-10-18T09:51:01;20.52;;;8.05;;
59442;SDS011;45247;47.466;19.004;2022-10-18T09:53:35;16.25;;;7.90;;
59442;SDS011;45247;47.466;19.004;2022-10-18T09:56:10;17.17;;;7.80;;
59442;SDS011;45247;47.466;19.004;2022-10-18T09:58:43;15.55;;;7.22;;
59442;SDS011;45247;47.466;19.004;2022-10-18T10:01:14;20.70;;;7.75;;
59442;SDS011;45247;47.466;19.004;2022-10-18T10:03:44;9.75;;;7.00;;
59442;SDS011;45247;47.466;19.004;2022-10-18T10:06:16;13.30;;;6.65;;
59442;SDS011;45247;47.466;19.004;2022-10-18T10:08:54;14.40;;;6.63;;
59442;SDS011;45247;47.466;19.004;2022-10-18T10:11:27;12.95;;;6.32;;
59442;SDS011;45247;47.466;19.004;2022-10-18T10:14:09;10.68;;;6.53;;
59442;SDS011;45247;47.466;19.004;2022-10-18T10:16:42;15.15;;;6.10;;
59442;SDS011;45247;47.466;19.004;2022-10-18T10:19:17;19.10;;;7.45;;
59442;SDS011;45247;47.466;19.004;2022-10-18T10:21:46;13.43;;;6.65;;
59442;SDS011;45247;47.466;19.004;2022-10-18T10:24:18;11.95;;;6.57;;
59442;SDS011;45247;47.466;19.004;2022-10-18T10:26:59;11.73;;;6.63;;
59442;SDS011;45247;47.466;19.004;2022-10-18T10:29:46;16.60;;;7.28;;
59442;SDS011;45247;47.466;19.004;2022-10-18T10:32:29;15.43;;;8.15;;
59442;SDS011;45247;47.466;19.004;2022-10-18T10:35:18;13.13;;;6.75;;
59442;SDS011;45247;47.466;19.004;2022-10-18T10:38:20;15.90;;;7.07;;
59442;SDS011;45247;47.466;19.004;2022-10-18T10:40:50;16.23;;;6.55;;
59442;SDS011;45247;47.466;19.004;2022-10-18T10:43:19;10.63;;;6.45;;
59442;SDS011;45247;47.466;19.004;2022-10-18T10:46:05;14.88;;;6.65;;
59442;SDS011;45247;47.466;19.004;2022-10-18T10:48:38;17.63;;;6.55;;
59442;SDS011;45247;47.466;19.004;2022-10-18T10:51:14;15.07;;;6.88;;
59442;SDS011;45247;47.466;19.004;2022-10-18T10:53:46;17.13;;;7.40;;
59442;SDS011;45247;47.466;19.004;2022-10-18T10:56:21;20.88;;;7.07;;
59442;SDS011;45247;47.466;19.004;2022-10-18T10:58:52;9.80;;;6.18;;
59442;SDS011;45247;47.466;19.004;2022-10-18T11:01:24;16.48;;;7.10;;
59442;SDS011;45247;47.466;19.004;2022-10-18T11:03:56;18.95;;;6.93;;
59442;SDS011;45247;47.466;19.004;2022-10-18T11:09:41;17.85;;;6.43;;
59442;SDS011;45247;47.466;19.004;2022-10-18T11:12:19;12.15;;;6.40;;
59442;SDS011;45247;47.466;19.004;2022-10-18T11:14:53;11.15;;;6.20;;
59442;SDS011;45247;47.466;19.004;2022-10-18T11:17:31;12.60;;;6.18;;
59442;SDS011;45247;47.466;19.004;2022-10-18T11:20:08;17.73;;;5.50;;
59442;SDS011;45247;47.466;19.004;2022-10-18T11:22:42;11.25;;;5.47;;
59442;SDS011;45247;47.466;19.004;2022-10-18T11:25:16;14.10;;;6.75;;
59442;SDS011;45247;47.466;19.004;2022-10-18T11:27:45;11.38;;;5.75;;
59442;SDS011;45247;47.466;19.004;2022-10-18T11:30:26;8.98;;;5.55;;
59442;SDS011;45247;47.466;19.004;2022-10-18T11:33:12;14.88;;;6.30;;
59442;SDS011;45247;47.466;19.004;2022-10-18T11:36:11;10.48;;;6.30;;
59442;SDS011;45247;47.466;19.004;2022-10-18T11:38:47;10.98;;;5.80;;
59442;SDS011;45247;47.466;19.004;2022-10-18T11:44:12;12.63;;;6.07;;
59442;SDS011;45247;47.466;19.004;2022-10-18T11:46:53;14.48;;;5.78;;
59442;SDS011;45247;47.466;19.004;2022-10-18T11:49:36;15.35;;;6.43;;
59442;SDS011;45247;47.466;19.004;2022-10-18T11:52:12;12.05;;;6.50;;
59442;SDS011;45247;47.466;19.004;2022-10-18T11:54:51;14.82;;;6.32;;
59442;SDS011;45247;47.466;19.004;2022-10-18T11:57:31;11.52;;;5.60;;
59442;SDS011;45247;47.466;19.004;2022-10-18T12:00:27;9.57;;;5.83;;
59442;SDS011;45247;47.466;19.004;2022-10-18T12:03:13;14.13;;;5.07;;
59442;SDS011;45247;47.466;19.004;2022-10-18T12:05:50;12.02;;;5.63;;
59442;SDS011;45247;47.466;19.004;2022-10-18T12:08:20;9.02;;;5.07;;
59442;SDS011;45247;47.466;19.004;2022-10-18T12:10:52;11.05;;;6.45;;
59442;SDS011;45247;47.466;19.004;2022-10-18T12:13:33;11.93;;;5.88;;
59442;SDS011;45247;47.466;19.004;2022-10-18T12:16:05;9.68;;;5.25;;
59442;SDS011;45247;47.466;19.004;2022-10-18T12:18:38;15.15;;;5.43;;
59442;SDS011;45247;47.466;19.004;2022-10-18T12:21:15;16.60;;;5.85;;
59442;SDS011;45247;47.466;19.004;2022-10-18T12:23:51;10.00;;;5.72;;
59442;SDS011;45247;47.466;19.004;2022-10-18T12:26:22;12.13;;;5.20;;
59442;SDS011;45247;47.466;19.004;2022-10-18T12:28:59;12.07;;;5.68;;
59442;SDS011;45247;47.466;19.004;2022-10-18T12:31:44;14.10;;;6.72;;
59442;SDS011;45247;47.466;19.004;2022-10-18T12:34:21;9.95;;;5.68;;
59442;SDS011;45247;47.466;19.004;2022-10-18T12:36:58;11.77;;;5.78;;
59442;SDS011;45247;47.466;19.004;2022-10-18T12:39:55;10.75;;;4.95;;
59442;SDS011;45247;47.466;19.004;2022-10-18T12:42:40;12.13;;;5.78;;
59442;SDS011;45247;47.466;19.004;2022-10-18T12:45:24;15.20;;;5.88;;
59442;SDS011;45247;47.466;19.004;2022-10-18T12:47:54;14.77;;;6.20;;
59442;SDS011;45247;47.466;19.004;2022-10-18T12:50:33;7.82;;;4.60;;
59442;SDS011;45247;47.466;19.004;2022-10-18T12:53:06;9.43;;;5.10;;
59442;SDS011;45247;47.466;19.004;2022-10-18T12:55:46;14.52;;;5.55;;
59442;SDS011;45247;47.466;19.004;2022-10-18T12:58:21;10.23;;;5.13;;
59442;SDS011;45247;47.466;19.004;2022-10-18T13:00:55;8.63;;;5.07;;
59442;SDS011;45247;47.466;19.004;2022-10-18T13:03:27;10.68;;;5.30;;
59442;SDS011;45247;47.466;19.004;2022-10-18T13:06:15;16.08;;;4.78;;
59442;SDS011;45247;47.466;19.004;2022-10-18T13:08:45;10.35;;;4.95;;
59442;SDS011;45247;47.466;19.004;2022-10-18T13:14:07;10.03;;;4.83;;
59442;SDS011;45247;47.466;19.004;2022-10-18T13:16:44;10.95;;;5.28;;
59442;SDS011;45247;47.466;19.004;2022-10-18T13:19:29;8.52;;;4.47;;
59442;SDS011;45247;47.466;19.004;2022-10-18T13:22:09;10.95;;;4.50;;
59442;SDS011;45247;47.466;19.004;2022-10-18T13:24:52;9.63;;;4.85;;
59442;SDS011;45247;47.466;19.004;2022-10-18T13:27:30;12.00;;;5.35;;
59442;SDS011;45247;47.466;19.004;2022-10-18T13:33:00;7.07;;;4.15;;
59442;SDS011;45247;47.466;19.004;2022-10-18T13:41:15;12.90;;;5.18;;
59442;SDS011;45247;47.466;19.004;2022-10-18T13:43:55;7.07;;;4.43;;
59442;SDS011;45247;47.466;19.004;2022-10-18T13:52:42;6.55;;;4.32;;
59442;SDS011;45247;47.466;19.004;2022-10-18T13:55:42;9.25;;;4.28;;
59442;SDS011;45247;47.466;19.004;2022-10-18T13:58:25;10.30;;;4.55;;
59442;SDS011;45247;47.466;19.004;2022-10-18T14:01:13;6.03;;;4.07;;
59442;SDS011;45247;47.466;19.004;2022-10-18T14:07:06;7.63;;;4.47;;
59442;SDS011;45247;47.466;19.004;2022-10-18T14:09:42;10.48;;;4.30;;
59442;SDS011;45247;47.466;19.004;2022-10-18T14:14:55;11.18;;;4.90;;
59442;SDS011;45247;47.466;19.004;2022-10-18T14:17:32;8.65;;;4.78;;
59442;SDS011;45247;47.466;19.004;2022-10-18T14:20:12;9.50;;;4.38;;
59442;SDS011;45247;47.466;19.004;2022-10-18T14:22:47;6.60;;;4.05;;
59442;SDS011;45247;47.466;19.004;2022-10-18T14:25:21;7.22;;;4.15;;
59442;SDS011;45247;47.466;19.004;2022-10-18T14:28:03;8.50;;;3.83;;
59442;SDS011;45247;47.466;19.004;2022-10-18T14:30:50;10.85;;;4.70;;
59442;SDS011;45247;47.466;19.004;2022-10-18T14:33:23;8.75;;;3.92;;
59442;SDS011;45247;47.466;19.004;2022-10-18T14:35:57;11.40;;;4.93;;
59442;SDS011;45247;47.466;19.004;2022-10-18T14:38:26;14.05;;;4.78;;
59442;SDS011;45247;47.466;19.004;2022-10-18T14:41:03;6.93;;;4.28;;
59442;SDS011;45247;47.466;19.004;2022-10-18T14:43:32;9.30;;;4.68;;
59442;SDS011;45247;47.466;19.004;2022-10-18T14:46:08;6.05;;;4.13;;
59442;SDS011;45247;47.466;19.004;2022-10-18T14:48:38;5.50;;;4.15;;
59442;SDS011;45247;47.466;19.004;2022-10-18T14:51:06;7.43;;;3.85;;
59442;SDS011;45247;47.466;19.004;2022-10-18T14:53:40;10.77;;;4.68;;
59442;SDS011;45247;47.466;19.004;2022-10-18T14:56:12;8.27;;;4.15;;
59442;SDS011;45247;47.466;19.004;2022-10-18T14:58:48;6.95;;;3.88;;
59442;SDS011;45247;47.466;19.004;2022-10-18T15:01:20;11.18;;;4.88;;
59442;SDS011;45247;47.466;19.004;2022-10-18T15:03:54;7.93;;;4.07;;
59442;SDS011;45247;47.466;19.004;2022-10-18T15:06:24;7.47;;;4.40;;
59442;SDS011;45247;47.466;19.004;2022-10-18T15:08:54;10.55;;;4.82;;
59442;SDS011;45247;47.466;19.004;2022-10-18T15:11:23;10.90;;;4.90;;
59442;SDS011;45247;47.466;19.004;2022-10-18T15:13:53;8.30;;;4.78;;
59442;SDS011;45247;47.466;19.004;2022-10-18T15:16:24;10.23;;;4.78;;
59442;SDS011;45247;47.466;19.004;2022-10-18T15:18:57;11.48;;;4.65;;
59442;SDS011;45247;47.466;19.004;2022-10-18T15:21:30;7.00;;;4.30;;
59442;SDS011;45247;47.466;19.004;2022-10-18T15:26:56;10.07;;;4.70;;
59442;SDS011;45247;47.466;19.004;2022-10-18T15:29:29;9.55;;;4.97;;